createdAt,value
2018-03-17T00:00:24.446Z,1.50
2018-03-17T00:02:52.663Z,1.60
2018-03-17T00:05:21.511Z,1.60
2018-03-17T00:07:49.609Z,1.50
2018-03-17T00:10:17.701Z,1.50
2018-03-17T00:12:46.161Z,1.50
2018-03-17T00:15:15.126Z,1.60
2018-03-17T00:17:43.474Z,1.50
2018-03-17T00:20:11.623Z,1.60
2018-03-17T00:22:39.702Z,1.50
2018-03-17T00:25:07.799Z,1.50
2018-03-17T00:27:35.875Z,1.50
2018-03-17T00:30:03.959Z,1.60
2018-03-17T00:32:33.009Z,1.40
2018-03-17T00:35:03.112Z,1.40
2018-03-17T00:37:31.963Z,1.30
2018-03-17T00:40:00.064Z,1.30
2018-03-17T00:42:28.216Z,1.30
2018-03-17T00:44:56.319Z,1.30
2018-03-17T00:47:25.196Z,1.40
2018-03-17T00:49:53.285Z,1.10
2018-03-17T00:52:22.138Z,1.10
2018-03-17T00:54:50.296Z,1.10
2018-03-17T00:57:18.390Z,1.20
2018-03-17T00:59:46.476Z,1.20
2018-03-17T01:02:14.570Z,1.20
2018-03-17T01:04:43.408Z,1.10
2018-03-17T01:07:11.535Z,1.30
2018-03-17T01:09:39.627Z,1.20
2018-03-17T01:12:07.697Z,1.10
2018-03-17T01:14:36.360Z,1.10
2018-03-17T01:17:05.220Z,1.10
2018-03-17T01:19:33.319Z,1.00
2018-03-17T01:22:02.172Z,1.10
2018-03-17T01:24:30.257Z,1.10
2018-03-17T01:26:58.347Z,1.10
2018-03-17T01:29:26.463Z,1.10
2018-03-17T01:31:54.555Z,1.10
2018-03-17T01:34:23.678Z,1.00
2018-03-17T01:36:52.804Z,1.00
2018-03-17T01:39:23.611Z,0.90
2018-03-17T01:41:51.713Z,1.00
2018-03-17T01:44:20.743Z,0.80
2018-03-17T01:46:48.821Z,0.90
2018-03-17T01:49:17.391Z,0.90
2018-03-17T01:51:45.459Z,0.90
2018-03-17T01:54:39.112Z,0.80
2018-03-17T01:57:07.197Z,0.70
2018-03-17T01:59:35.288Z,0.60
2018-03-17T02:02:03.368Z,0.70
2018-03-17T02:04:31.515Z,0.50
2018-03-17T02:07:00.319Z,0.60
2018-03-17T02:09:28.398Z,0.60
2018-03-17T02:11:56.646Z,0.70
2018-03-17T02:14:24.730Z,0.70
2018-03-17T02:16:52.823Z,0.70
2018-03-17T02:19:20.895Z,0.80
2018-03-17T02:21:48.995Z,0.80
2018-03-17T02:24:17.080Z,0.70
2018-03-17T02:26:45.944Z,0.70
2018-03-17T02:29:14.021Z,0.70
2018-03-17T02:31:42.108Z,0.60
2018-03-17T02:34:10.198Z,0.70
2018-03-17T02:36:38.432Z,0.50
2018-03-17T02:39:08.112Z,0.50
2018-03-17T02:41:36.181Z,0.50
2018-03-17T02:44:04.479Z,0.40
2018-03-17T02:46:32.556Z,0.50
2018-03-17T02:49:00.655Z,0.30
2018-03-17T02:51:28.732Z,0.40
2018-03-17T02:53:56.894Z,0.40
2018-03-17T02:56:25.120Z,0.30
2018-03-17T02:58:53.196Z,0.20
2018-03-17T03:01:21.279Z,0.30
2018-03-17T03:03:49.356Z,0.30
2018-03-17T03:06:17.440Z,0.20
2018-03-17T03:08:45.679Z,0.30
2018-03-17T03:11:13.782Z,0.20
2018-03-17T03:13:41.866Z,0.10
2018-03-17T03:16:09.944Z,0.20
2018-03-17T03:18:38.051Z,0.10
2018-03-17T03:21:06.995Z,0.00
2018-03-17T03:23:35.342Z,0.00
2018-03-17T03:26:03.430Z,0.00
2018-03-17T03:28:31.506Z,-0.10
2018-03-17T03:30:59.703Z,-0.10
2018-03-17T03:33:27.784Z,-0.10
2018-03-17T03:35:55.891Z,-0.20
2018-03-17T03:38:25.105Z,-0.10
2018-03-17T03:40:53.351Z,-0.10
2018-03-17T03:43:21.422Z,-0.20
2018-03-17T03:45:50.275Z,-0.10
2018-03-17T03:48:18.586Z,-0.10
2018-03-17T03:50:48.022Z,-0.10
2018-03-17T03:53:16.352Z,-0.10
2018-03-17T03:55:44.427Z,-0.20
2018-03-17T03:58:12.503Z,-0.20
2018-03-17T04:00:40.720Z,-0.20
2018-03-17T04:03:09.878Z,-0.20
2018-03-17T04:05:37.981Z,-0.20
2018-03-17T04:08:06.071Z,-0.30
2018-03-17T04:10:34.955Z,-0.20
2018-03-17T04:13:03.034Z,-0.10
2018-03-17T04:15:31.128Z,-0.20
2018-03-17T04:17:59.221Z,-0.20
2018-03-17T04:20:27.324Z,-0.20
2018-03-17T04:22:56.196Z,-0.20
2018-03-17T04:25:25.051Z,-0.30
2018-03-17T04:27:53.211Z,-0.30
2018-03-17T04:30:21.293Z,-0.30
2018-03-17T04:32:49.392Z,-0.40
2018-03-17T04:35:17.468Z,-0.30
2018-03-17T04:37:46.318Z,-0.30
2018-03-17T04:40:14.402Z,-0.30
2018-03-17T04:42:42.488Z,-0.20
2018-03-17T04:45:10.579Z,-0.20
2018-03-17T04:47:38.671Z,-0.20
2018-03-17T04:50:07.526Z,-0.30
2018-03-17T04:52:35.882Z,-0.30
2018-03-17T04:55:03.979Z,-0.20
2018-03-17T04:57:32.055Z,-0.30
2018-03-17T05:00:00.172Z,-0.30
2018-03-17T05:02:28.268Z,-0.30
2018-03-17T05:04:56.350Z,-0.30
2018-03-17T05:07:24.532Z,-0.40
2018-03-17T05:09:52.647Z,-0.40
2018-03-17T05:12:20.751Z,-0.50
2018-03-17T05:14:48.971Z,-0.60
2018-03-17T05:17:17.123Z,-0.60
2018-03-17T05:19:45.903Z,-0.60
2018-03-17T05:22:13.998Z,-0.60
2018-03-17T05:24:42.081Z,-0.60
2018-03-17T05:27:10.181Z,-0.60
2018-03-17T05:29:38.277Z,-0.70
2018-03-17T05:32:06.363Z,-0.60
2018-03-17T05:34:34.435Z,-0.60
2018-03-17T05:37:02.559Z,-0.80
2018-03-17T05:39:31.424Z,-0.70
2018-03-17T05:41:59.591Z,-0.70
2018-03-17T05:44:27.677Z,-0.70
2018-03-17T05:46:56.627Z,-0.80
2018-03-17T05:49:24.813Z,-0.80
2018-03-17T05:51:52.898Z,-0.80
2018-03-17T05:54:21.198Z,-0.80
2018-03-17T05:56:49.308Z,-0.70
2018-03-17T05:59:17.393Z,-0.80
2018-03-17T06:01:45.470Z,-0.80
2018-03-17T06:04:13.560Z,-0.80
2018-03-17T06:06:41.655Z,-0.90
2018-03-17T06:09:10.521Z,-0.90
2018-03-17T06:11:38.605Z,-0.90
2018-03-17T06:14:06.723Z,-1.00
2018-03-17T06:16:34.813Z,-0.90
2018-03-17T06:19:02.904Z,-1.00
2018-03-17T06:21:30.984Z,-1.00
2018-03-17T06:23:59.085Z,-0.90
2018-03-17T06:26:27.178Z,-1.10
2018-03-17T06:28:55.514Z,-1.00
2018-03-17T06:31:23.608Z,-1.00
2018-03-17T06:33:52.452Z,-0.90
2018-03-17T06:36:20.547Z,-1.00
2018-03-17T06:38:49.269Z,-1.00
2018-03-17T06:41:18.111Z,-1.00
2018-03-17T06:43:46.226Z,-1.00
2018-03-17T06:46:15.108Z,-1.00
2018-03-17T06:48:43.968Z,-1.00
2018-03-17T06:51:12.058Z,-1.00
2018-03-17T06:53:42.319Z,-0.90
2018-03-17T06:56:10.416Z,-0.90
2018-03-17T06:58:38.504Z,-1.00
2018-03-17T07:01:06.614Z,-1.10
2018-03-17T07:03:35.622Z,-1.10
2018-03-17T07:06:03.748Z,-1.10
2018-03-17T07:08:31.832Z,-1.10
2018-03-17T07:10:59.925Z,-1.10
2018-03-17T07:13:29.793Z,-1.10
2018-03-17T07:15:57.960Z,-1.20
2018-03-17T07:18:26.549Z,-1.20
2018-03-17T07:20:54.710Z,-1.20
2018-03-17T07:23:24.009Z,-1.20
2018-03-17T07:25:52.906Z,-1.20
2018-03-17T07:28:21.735Z,-1.20
2018-03-17T07:30:49.832Z,-1.20
2018-03-17T07:33:18.784Z,-1.30
2018-03-17T07:35:47.580Z,-1.30
2018-03-17T07:38:17.208Z,-1.40
2018-03-17T07:40:45.592Z,-1.30
2018-03-17T07:43:14.456Z,-1.20
2018-03-17T07:45:43.748Z,-1.20
2018-03-17T07:48:12.529Z,-1.20
2018-03-17T07:50:41.029Z,-1.30
2018-03-17T07:53:09.106Z,-1.30
2018-03-17T07:55:38.080Z,-1.30
2018-03-17T07:58:06.818Z,-1.30
2018-03-17T08:00:34.910Z,-1.20
2018-03-17T08:03:03.008Z,-1.10
2018-03-17T08:05:31.110Z,-1.20
2018-03-17T08:07:59.205Z,-1.20
2018-03-17T08:10:28.062Z,-1.20
2018-03-17T08:12:56.164Z,-1.20
2018-03-17T08:15:25.335Z,-1.20
2018-03-17T08:17:53.441Z,-1.30
2018-03-17T08:20:23.436Z,-1.30
2018-03-17T08:22:51.539Z,-1.30
2018-03-17T08:25:19.610Z,-1.30
2018-03-17T08:27:47.838Z,-1.30
2018-03-17T08:30:15.962Z,-1.30
2018-03-17T08:32:44.044Z,-1.30
2018-03-17T08:35:12.157Z,-1.30
2018-03-17T08:37:40.229Z,-1.30
2018-03-17T08:40:08.340Z,-1.40
2018-03-17T08:42:36.425Z,-1.40
2018-03-17T08:45:04.516Z,-1.30
2018-03-17T08:47:34.052Z,-1.30
2018-03-17T08:50:03.073Z,-1.30
2018-03-17T08:52:32.358Z,-1.40
2018-03-17T08:55:00.507Z,-1.40
2018-03-17T08:57:28.612Z,-1.40
2018-03-17T08:59:57.541Z,-1.50
2018-03-17T09:02:25.653Z,-1.40
2018-03-17T09:04:53.824Z,-1.40
2018-03-17T09:07:21.905Z,-1.50
2018-03-17T09:09:49.988Z,-1.40
2018-03-17T09:12:18.098Z,-1.30
2018-03-17T09:14:46.180Z,-1.30
2018-03-17T09:17:14.281Z,-1.30
2018-03-17T09:19:42.381Z,-1.20
2018-03-17T09:22:10.500Z,-1.20
2018-03-17T09:24:38.597Z,-1.30
2018-03-17T09:27:06.687Z,-1.30
2018-03-17T09:29:34.832Z,-1.20
2018-03-17T09:32:03.020Z,-1.10
2018-03-17T09:34:31.113Z,-1.00
2018-03-17T09:36:59.282Z,-1.00
2018-03-17T09:39:29.499Z,-1.30
2018-03-17T09:41:57.611Z,-1.40
2018-03-17T09:44:26.485Z,-1.40
2018-03-17T09:46:56.465Z,-1.30
2018-03-17T09:49:24.567Z,-1.30
2018-03-17T09:51:52.721Z,-1.40
2018-03-17T09:54:21.566Z,-1.40
2018-03-17T09:56:49.683Z,-1.40
2018-03-17T09:59:17.915Z,-1.40
2018-03-17T10:01:46.197Z,-1.30
2018-03-17T10:04:16.161Z,-1.20
2018-03-17T10:06:44.351Z,-1.20
2018-03-17T10:09:13.212Z,-1.20
2018-03-17T10:11:41.331Z,-1.10
2018-03-17T10:14:09.437Z,-1.20
2018-03-17T10:16:37.524Z,-1.20
2018-03-17T10:19:06.409Z,-1.10
2018-03-17T10:21:34.542Z,-1.00
2018-03-17T10:24:02.662Z,-1.10
2018-03-17T10:26:31.489Z,-1.20
2018-03-17T10:29:00.354Z,-1.20
2018-03-17T10:31:28.470Z,-1.40
2018-03-17T10:33:56.601Z,-1.40
2018-03-17T10:36:25.171Z,-1.40
2018-03-17T10:38:53.956Z,-1.30
2018-03-17T10:41:22.064Z,-1.30
2018-03-17T10:43:50.188Z,-1.20
2018-03-17T10:46:18.341Z,-1.20
2018-03-17T10:48:46.449Z,-1.10
2018-03-17T10:51:15.164Z,-1.10
2018-03-17T10:53:43.407Z,-1.00
2018-03-17T10:56:11.578Z,-1.00
2018-03-17T10:58:39.799Z,-1.00
2018-03-17T11:01:13.305Z,-1.00
2018-03-17T11:03:42.172Z,-1.10
2018-03-17T11:06:10.319Z,-1.10
2018-03-17T11:08:38.594Z,-1.10
2018-03-17T11:11:06.675Z,-2.30
2018-03-17T11:13:35.682Z,-1.40
2018-03-17T11:16:03.817Z,-1.30
2018-03-17T11:18:32.202Z,-1.20
2018-03-17T11:21:04.402Z,-1.30
2018-03-17T11:23:32.481Z,-1.30
2018-03-17T11:26:00.589Z,-1.30
2018-03-17T11:28:28.831Z,-1.30
2018-03-17T11:30:56.934Z,-1.30
2018-03-17T11:33:25.029Z,-1.40
2018-03-17T11:35:53.156Z,-1.30
2018-03-17T11:38:21.245Z,-1.20
2018-03-17T11:40:49.434Z,-1.20
2018-03-17T11:43:17.600Z,-1.20
2018-03-17T11:45:45.756Z,-1.30
2018-03-17T11:48:14.848Z,-1.20
2018-03-17T11:50:43.703Z,-1.30
2018-03-17T11:53:11.952Z,-1.20
2018-03-17T11:55:40.058Z,-1.20
2018-03-17T11:58:08.396Z,-1.20
2018-03-17T12:00:36.489Z,-1.20
2018-03-17T12:03:04.607Z,-1.10
2018-03-17T12:05:33.527Z,-1.20
2018-03-17T12:08:01.646Z,-1.30
2018-03-17T12:10:29.737Z,-1.10
2018-03-17T12:12:58.136Z,-1.10
2018-03-17T12:15:27.012Z,-1.00
2018-03-17T12:17:55.080Z,-1.10
2018-03-17T12:20:23.215Z,-1.10
2018-03-17T12:22:51.284Z,-1.20
2018-03-17T12:25:24.849Z,-1.30
2018-03-17T12:27:52.979Z,-1.30
2018-03-17T12:30:21.069Z,-1.10
2018-03-17T12:32:49.170Z,-1.20
2018-03-17T12:35:18.052Z,-1.10
2018-03-17T12:37:46.465Z,-1.10
2018-03-17T12:40:14.610Z,-1.10
2018-03-17T12:42:42.699Z,-1.00
2018-03-17T12:45:10.805Z,-1.00
2018-03-17T12:47:39.166Z,-1.00
2018-03-17T12:50:07.316Z,-1.10
2018-03-17T12:52:35.777Z,-1.20
2018-03-17T12:55:04.659Z,-1.20
2018-03-17T12:57:32.745Z,-1.10
2018-03-17T13:00:01.615Z,-1.10
2018-03-17T13:02:29.882Z,-1.10
2018-03-17T13:04:57.972Z,-1.10
2018-03-17T13:07:26.057Z,-1.10
2018-03-17T13:09:54.287Z,-1.20
2018-03-17T13:12:22.379Z,-1.10
2018-03-17T13:14:50.712Z,-1.00
2018-03-17T13:17:18.829Z,-1.00
2018-03-17T13:19:46.908Z,-1.00
2018-03-17T13:22:14.999Z,-1.10
2018-03-17T13:24:43.844Z,-1.10
2018-03-17T13:27:30.238Z,-1.20
2018-03-17T13:29:58.323Z,-1.00
2018-03-17T13:32:44.001Z,-1.00
2018-03-17T13:35:13.031Z,-1.10
2018-03-17T13:37:41.140Z,-1.10
2018-03-17T13:40:26.786Z,-1.00
2018-03-17T13:42:54.940Z,-1.00
2018-03-17T13:45:23.082Z,-0.90
2018-03-17T13:47:51.287Z,-0.90
2018-03-17T13:50:20.183Z,-1.00
2018-03-17T13:52:48.270Z,-1.10
2018-03-17T13:55:16.384Z,-1.20
2018-03-17T13:57:44.471Z,-1.20
2018-03-17T14:00:13.022Z,-1.20
2018-03-17T14:02:41.117Z,-1.30
2018-03-17T14:05:09.224Z,-1.30
2018-03-17T14:07:37.390Z,-1.30
2018-03-17T14:10:05.524Z,-1.30
2018-03-17T14:12:33.621Z,-1.30
2018-03-17T14:15:01.773Z,-1.30
2018-03-17T14:17:29.956Z,-1.40
2018-03-17T14:19:58.048Z,-1.30
2018-03-17T14:22:26.176Z,-1.20
2018-03-17T14:24:55.016Z,-1.20
2018-03-17T14:27:23.102Z,-1.30
2018-03-17T14:29:51.265Z,-1.20
2018-03-17T14:32:19.406Z,-1.20
2018-03-17T14:34:47.529Z,-1.20
2018-03-17T14:37:15.636Z,-1.20
2018-03-17T14:39:43.749Z,-1.30
2018-03-17T14:42:11.846Z,-1.20
2018-03-17T14:44:40.494Z,-1.20
2018-03-17T14:47:09.085Z,-1.30
2018-03-17T14:49:38.119Z,-1.30
2018-03-17T14:52:06.209Z,-1.20
2018-03-17T14:54:34.313Z,-1.10
2018-03-17T14:57:02.460Z,-1.10
2018-03-17T14:59:30.504Z,-1.10
2018-03-17T15:01:58.595Z,-1.10
2018-03-17T15:04:26.693Z,-1.20
2018-03-17T15:06:56.432Z,-1.20
2018-03-17T15:09:24.502Z,-1.20
2018-03-17T15:11:53.395Z,-1.20
2018-03-17T15:14:21.822Z,-1.30
2018-03-17T15:16:50.788Z,-1.20
2018-03-17T15:19:18.876Z,-1.10
2018-03-17T15:21:46.971Z,-1.20
2018-03-17T15:24:15.295Z,-1.20
2018-03-17T15:26:43.446Z,-1.20
2018-03-17T15:29:11.555Z,-1.20
2018-03-17T15:31:39.883Z,-1.20
2018-03-17T15:34:08.012Z,-1.30
2018-03-17T15:36:36.098Z,-1.30
2018-03-17T15:39:04.933Z,-1.30
2018-03-17T15:41:33.064Z,-1.30
2018-03-17T15:44:01.211Z,-1.30
2018-03-17T15:46:29.338Z,-1.40
2018-03-17T15:48:57.420Z,-1.40
2018-03-17T15:51:25.532Z,-1.40
2018-03-17T15:53:54.434Z,-1.40
2018-03-17T15:56:23.302Z,-1.40
2018-03-17T15:58:52.134Z,-1.30
2018-03-17T16:01:21.162Z,-1.30
2018-03-17T16:03:49.491Z,-1.30
2018-03-17T16:06:17.609Z,-1.40
2018-03-17T16:08:46.289Z,-1.30
2018-03-17T16:11:14.667Z,-1.40
2018-03-17T16:13:42.759Z,-1.40
2018-03-17T16:16:10.959Z,-1.40
2018-03-17T16:18:39.046Z,-1.50
2018-03-17T16:21:07.158Z,-1.60
2018-03-17T16:23:35.965Z,-1.60
2018-03-17T16:26:04.085Z,-1.70
2018-03-17T16:28:32.220Z,-1.70
2018-03-17T16:31:00.337Z,-1.70
2018-03-17T16:33:28.544Z,-1.70
2018-03-17T16:35:57.361Z,-1.70
2018-03-17T16:38:25.459Z,-1.70
2018-03-17T16:40:53.575Z,-1.70
2018-03-17T16:43:21.680Z,-1.70
2018-03-17T16:45:49.950Z,-1.70
2018-03-17T16:48:18.060Z,-1.80
2018-03-17T16:50:46.168Z,-1.70
2018-03-17T16:53:14.324Z,-1.70
2018-03-17T16:55:42.629Z,-1.70
2018-03-17T16:58:11.449Z,-1.70
2018-03-17T17:00:40.455Z,-1.70
2018-03-17T17:03:08.601Z,-1.80
2018-03-17T17:05:36.731Z,-1.70
2018-03-17T17:08:04.823Z,-1.80
2018-03-17T17:10:32.979Z,-1.70
2018-03-17T17:13:01.296Z,-1.60
2018-03-17T17:15:29.630Z,-1.70
2018-03-17T17:17:58.337Z,-1.70
2018-03-17T17:20:27.127Z,-1.60
2018-03-17T17:22:55.347Z,-1.80
2018-03-17T17:25:24.931Z,-1.80
2018-03-17T17:27:56.463Z,-1.80
2018-03-17T17:30:24.703Z,-1.80
2018-03-17T17:32:54.727Z,-1.80
2018-03-17T17:35:22.912Z,-1.70
2018-03-17T17:37:51.181Z,-1.70
2018-03-17T17:40:22.723Z,-1.70
2018-03-17T17:42:51.603Z,-1.70
2018-03-17T17:45:19.816Z,-1.80
2018-03-17T17:47:47.927Z,-1.80
2018-03-17T17:50:16.197Z,-1.90
2018-03-17T17:52:44.331Z,-1.80
2018-03-17T17:55:12.471Z,-1.80
2018-03-17T17:57:40.677Z,-1.80
2018-03-17T18:00:08.781Z,-1.70
2018-03-17T18:02:37.241Z,-1.70
2018-03-17T18:05:06.343Z,-1.70
2018-03-17T18:07:35.439Z,-1.70
2018-03-17T18:10:09.906Z,-1.70
2018-03-17T18:12:39.162Z,-1.80
2018-03-17T18:15:07.304Z,-1.80
2018-03-17T18:17:41.780Z,-1.80
2018-03-17T18:20:12.236Z,-1.80
2018-03-17T18:22:40.673Z,-1.80
2018-03-17T18:25:10.269Z,-1.80
2018-03-17T18:27:38.461Z,-1.80
2018-03-17T18:30:06.986Z,-1.80
2018-03-17T18:32:37.460Z,-1.70
2018-03-17T18:35:07.392Z,-1.70
2018-03-17T18:37:35.602Z,-1.70
2018-03-17T18:40:03.697Z,-1.80
2018-03-17T18:42:32.103Z,-1.90
2018-03-17T18:45:04.125Z,-1.90
2018-03-17T18:47:34.188Z,-1.90
2018-03-17T18:50:02.286Z,-1.80
2018-03-17T18:52:30.917Z,-1.80
2018-03-17T18:54:59.112Z,-1.90
2018-03-17T18:57:27.377Z,-1.70
2018-03-17T18:59:56.640Z,-1.80
2018-03-17T19:02:25.563Z,-1.80
2018-03-17T19:04:53.712Z,-1.80
2018-03-17T19:07:21.941Z,-1.90
2018-03-17T19:09:50.983Z,-2.00
2018-03-17T19:12:20.021Z,-2.00
2018-03-17T19:14:49.794Z,-1.90
2018-03-17T19:17:18.065Z,-2.00
2018-03-17T19:19:47.884Z,-1.90
2018-03-17T19:22:16.460Z,-1.80
2018-03-17T19:24:45.448Z,-1.80
2018-03-17T19:27:14.563Z,-1.80
2018-03-17T19:29:43.068Z,-1.90
2018-03-17T19:32:12.085Z,-1.90
2018-03-17T19:34:40.924Z,-1.90
2018-03-17T19:37:09.768Z,-1.90
2018-03-17T19:39:38.221Z,-1.90
2018-03-17T19:42:06.311Z,-1.80
2018-03-17T19:44:34.449Z,-1.90
2018-03-17T19:47:03.446Z,-1.90
2018-03-17T19:49:31.567Z,-1.90
2018-03-17T19:51:59.638Z,-1.80
2018-03-17T19:54:27.764Z,-1.80
2018-03-17T19:56:56.409Z,-1.80
2018-03-17T19:59:25.256Z,-1.80
2018-03-17T20:01:53.396Z,-1.70
2018-03-17T20:04:21.533Z,-1.80
2018-03-17T20:06:50.338Z,-1.80
2018-03-17T20:09:18.453Z,-1.80
2018-03-17T20:11:46.557Z,-1.80
2018-03-17T20:14:14.656Z,-1.80
2018-03-17T20:16:42.740Z,-1.80
2018-03-17T20:19:11.632Z,-1.80
2018-03-17T20:21:40.541Z,-1.80
2018-03-17T20:24:08.836Z,-1.80
2018-03-17T20:26:36.941Z,-1.80
2018-03-17T20:29:05.034Z,-1.80
2018-03-17T20:31:33.155Z,-1.80
2018-03-17T20:34:01.851Z,-1.80
2018-03-17T20:36:29.949Z,-1.80
2018-03-17T20:38:58.212Z,-1.90
2018-03-17T20:41:26.305Z,-1.90
2018-03-17T20:43:54.408Z,-1.80
2018-03-17T20:46:22.869Z,-1.90
2018-03-17T20:48:50.964Z,-1.80
2018-03-17T20:51:19.050Z,-1.80
2018-03-17T20:53:47.164Z,-1.80
2018-03-17T20:56:16.199Z,-1.90
2018-03-17T20:58:45.080Z,-1.90
2018-03-17T21:01:15.313Z,-1.90
2018-03-17T21:03:43.479Z,-1.90
2018-03-17T21:06:11.755Z,-1.90
2018-03-17T21:08:41.622Z,-1.90
2018-03-17T21:11:10.241Z,-1.90
2018-03-17T21:13:38.672Z,-1.80
2018-03-17T21:16:08.106Z,-1.80
2018-03-17T21:18:36.315Z,-1.90
2018-03-17T21:21:06.754Z,-1.90
2018-03-17T21:23:35.643Z,-1.90
2018-03-17T21:26:03.925Z,-1.90
2018-03-17T21:28:32.117Z,-1.90
2018-03-17T21:31:02.068Z,-1.90
2018-03-17T21:33:30.361Z,-1.90
2018-03-17T21:35:59.838Z,-1.90
2018-03-17T21:38:28.934Z,-1.90
2018-03-17T21:40:57.614Z,-1.90
2018-03-17T21:43:26.960Z,-1.80
2018-03-17T21:45:55.168Z,-1.80
2018-03-17T21:48:25.280Z,-1.90
2018-03-17T21:51:04.367Z,-1.90
2018-03-17T21:53:39.203Z,-1.80
2018-03-17T21:56:08.327Z,-1.90
2018-03-17T21:58:37.219Z,-1.80
2018-03-17T22:01:06.680Z,-1.80
2018-03-17T22:03:38.696Z,-1.90
2018-03-17T22:06:06.862Z,-1.90
2018-03-17T22:08:35.031Z,-1.90
2018-03-17T22:11:03.131Z,-2.00
2018-03-17T22:13:33.593Z,-2.00
2018-03-17T22:16:03.246Z,-1.90
2018-03-17T22:18:32.251Z,-1.80
2018-03-17T22:21:20.536Z,-1.80
2018-03-17T22:27:15.072Z,-1.80
2018-03-17T22:29:50.827Z,-1.80
2018-03-17T22:32:18.937Z,-1.90
2018-03-17T22:34:47.784Z,-1.90
2018-03-17T22:37:15.981Z,-1.90
2018-03-17T22:39:44.455Z,-1.90
2018-03-17T22:42:12.643Z,-1.80
2018-03-17T22:44:40.811Z,-1.80
2018-03-17T22:47:10.905Z,-1.80
2018-03-17T22:49:39.111Z,-1.90
2018-03-17T22:52:07.208Z,-1.90
2018-03-17T22:54:35.412Z,-1.80
2018-03-17T22:57:04.543Z,-1.90
2018-03-17T22:59:34.704Z,-1.90
2018-03-17T23:02:02.808Z,-1.90
2018-03-17T23:04:30.895Z,-1.90
2018-03-17T23:06:59.446Z,-1.90
2018-03-17T23:09:28.677Z,-1.90
2018-03-17T23:11:58.290Z,-1.90
2018-03-17T23:14:26.395Z,-1.90
2018-03-17T23:16:55.044Z,-1.90
2018-03-17T23:19:23.287Z,-1.90
2018-03-17T23:21:51.453Z,-1.80
2018-03-17T23:24:20.281Z,-1.80
2018-03-17T23:26:48.882Z,-1.80
2018-03-17T23:29:17.659Z,-1.80
2018-03-17T23:31:46.040Z,-1.90
2018-03-17T23:34:14.221Z,-1.90
2018-03-17T23:36:42.380Z,-1.80
2018-03-17T23:39:10.491Z,-1.80
2018-03-17T23:41:40.563Z,-1.80
2018-03-17T23:44:10.286Z,-1.80
2018-03-17T23:46:39.198Z,-1.90
2018-03-17T23:49:08.069Z,-1.90
2018-03-17T23:51:36.175Z,-1.90
2018-03-17T23:54:04.268Z,-1.90
2018-03-17T23:56:33.153Z,-1.80
2018-03-17T23:59:02.207Z,-1.80
